Sovereign — 9HUE9 — position and weather

sailwx.info

Track history (hours):
 
Tides and Currents Weather Stations Pressure Air Temp Water Temp Dewpoint Dewpoint Depression Visibility Wind Speed Wind Dir Waves Ship Positions

Sovereign

Last reported at 2016-Sep-29 23:34 UTC. Time now 2016-Sep-30 01:35 UTC.
Position N 43°08' E 008°19'.

Length 268 m; draft 7.8 m.

Type: Passenger vessel. MMSI: 249539000.

Date/timePositionNaut miles runAvg speedWind from/ knotsBaromVisibWave heightAir tempDewpointWater temp
2016-Sep-29 23:34N 43°08' E 008°19'3216.2
2016-Sep-29 21:33N 43°19' E 009°01'1616.0
2016-Sep-29 20:34N 43°26' E 009°21'1616.0
2016-Sep-29 19:34N 43°32' E 009°41'26 8.6
2016-Sep-29 16:31N 43°33' E 010°18'0 0.0
2016-Sep-29 15:31N 43°33' E 010°18'0 0.0
2016-Sep-29 14:31N 43°33' E 010°18'0 0.0
2016-Sep-29 13:31N 43°33' E 010°18'0 0.0
2016-Sep-29 08:31N 43°33' E 010°18'0 0.0
2016-Sep-29 07:31N 43°33' E 010°18'53 7.6
2016-Sep-29 00:33N 42°41' E 010°06'4314.3
2016-Sep-28 21:33N 42°05' E 010°38'  
2016-Sep-24 19:14N 41°16' E 002°41'811.9
2016-Sep-24 18:33N 41°16' E 002°30'1411.3
2016-Sep-24 17:18N 41°15' E 002°11'7 0.9
2016-Sep-24 09:31N 41°22' E 002°11'34 5.6
2016-Sep-24 03:23N 41°26' E 002°56'12715.7
2016-Sep-23 19:17N 42°39' E 005°16'3914.4
2016-Sep-23 16:33N 43°06' E 005°55'1 0.7
2016-Sep-23 15:30N 43°06' E 005°54'0 0.0
2016-Sep-23 13:30N 43°06' E 005°54'0 0.0
2016-Sep-23 09:30N 43°06' E 005°54'1 0.3
2016-Sep-23 06:33N 43°06' E 005°55'8814.7
2016-Sep-23 00:33N 43°02' E 007°56'6816.9
2016-Sep-22 20:33N 43°25' E 009°22'41 5.2
2016-Sep-22 12:31N 43°34' E 010°18'5 0.6
2016-Sep-22 04:34N 43°30' E 010°14'8 7.8
2016-Sep-22 03:33N 43°23' E 010°11'4513.4
2016-Sep-22 00:14N 42°38' E 010°09'1514.4
2016-Sep-21 23:12N 42°27' E 010°22'  
Track history (hours):
 
Tides and Currents Weather Stations Pressure Air Temp Water Temp Dewpoint Dewpoint Depression Visibility Wind Speed Wind Dir Waves Ship Positions

Sovereign

Last reported at 2016-Sep-29 23:34 UTC. Time now 2016-Sep-30 01:35 UTC.
Position N 43°08' E 008°19'.

Length 268 m; draft 7.8 m.

Type: Passenger vessel. MMSI: 249539000.

Date/timePositionNaut miles runAvg speedWind from/ knotsBaromVisibWave heightAir tempDewpointWater temp
2016-Sep-29 23:34N 43°08' E 008°19'3216.2
2016-Sep-29 21:33N 43°19' E 009°01'1616.0
2016-Sep-29 20:34N 43°26' E 009°21'1616.0
2016-Sep-29 19:34N 43°32' E 009°41'26 8.6
2016-Sep-29 16:31N 43°33' E 010°18'0 0.0
2016-Sep-29 15:31N 43°33' E 010°18'0 0.0
2016-Sep-29 14:31N 43°33' E 010°18'0 0.0
2016-Sep-29 13:31N 43°33' E 010°18'0 0.0
2016-Sep-29 08:31N 43°33' E 010°18'0 0.0
2016-Sep-29 07:31N 43°33' E 010°18'53 7.6
2016-Sep-29 00:33N 42°41' E 010°06'4314.3
2016-Sep-28 21:33N 42°05' E 010°38'  
2016-Sep-24 19:14N 41°16' E 002°41'811.9
2016-Sep-24 18:33N 41°16' E 002°30'1411.3
2016-Sep-24 17:18N 41°15' E 002°11'7 0.9
2016-Sep-24 09:31N 41°22' E 002°11'34 5.6
2016-Sep-24 03:23N 41°26' E 002°56'12715.7
2016-Sep-23 19:17N 42°39' E 005°16'3914.4
2016-Sep-23 16:33N 43°06' E 005°55'1 0.7
2016-Sep-23 15:30N 43°06' E 005°54'0 0.0
2016-Sep-23 13:30N 43°06' E 005°54'0 0.0
2016-Sep-23 09:30N 43°06' E 005°54'1 0.3
2016-Sep-23 06:33N 43°06' E 005°55'8814.7
2016-Sep-23 00:33N 43°02' E 007°56'6816.9
2016-Sep-22 20:33N 43°25' E 009°22'41 5.2
2016-Sep-22 12:31N 43°34' E 010°18'5 0.6
2016-Sep-22 04:34N 43°30' E 010°14'8 7.8
2016-Sep-22 03:33N 43°23' E 010°11'4513.4
2016-Sep-22 00:14N 42°38' E 010°09'1514.4
2016-Sep-21 23:12N 42°27' E 010°22'  

Dump ship's entire track history